createdAt,value
2018-06-11T00:02:00.147Z,21.10
2018-06-11T00:04:29.038Z,21.10
2018-06-11T00:06:57.920Z,21.10
2018-06-11T00:11:55.403Z,21.10
2018-06-11T00:14:24.221Z,21.00
2018-06-11T00:16:53.070Z,21.00
2018-06-11T00:19:21.906Z,21.00
2018-06-11T00:21:50.792Z,21.00
2018-06-11T00:24:19.693Z,21.00
2018-06-11T00:26:48.563Z,21.00
2018-06-11T00:29:17.446Z,20.90
2018-06-11T00:31:46.340Z,20.90
2018-06-11T00:34:15.206Z,20.90
2018-06-11T00:36:44.112Z,20.90
2018-06-11T00:39:13.001Z,20.90
2018-06-11T00:41:41.866Z,20.90
2018-06-11T00:44:10.727Z,20.80
2018-06-11T00:46:39.569Z,20.80
2018-06-11T00:49:08.418Z,20.80
2018-06-11T00:51:37.317Z,20.80
2018-06-11T00:56:34.761Z,20.80
2018-06-11T00:59:03.586Z,20.80
2018-06-11T01:01:32.467Z,20.80
2018-06-11T01:04:01.296Z,20.80
2018-06-11T01:06:30.170Z,20.70
2018-06-11T01:08:59.038Z,20.70
2018-06-11T01:13:56.521Z,20.70
2018-06-11T01:16:25.362Z,20.70
2018-06-11T01:18:54.205Z,20.70
2018-06-11T01:21:23.103Z,20.70
2018-06-11T01:23:51.987Z,20.70
2018-06-11T01:26:20.870Z,20.60
2018-06-11T01:28:49.862Z,20.60
2018-06-11T01:31:18.826Z,20.70
2018-06-11T01:33:47.802Z,20.60
2018-06-11T01:36:16.734Z,20.60
2018-06-11T01:38:46.010Z,20.50
2018-06-11T01:41:14.906Z,20.60
2018-06-11T01:43:43.884Z,20.60
2018-06-11T01:46:12.764Z,20.60
2018-06-11T01:48:41.638Z,20.50
2018-06-11T01:51:10.799Z,20.50
2018-06-11T01:53:39.699Z,20.50
2018-06-11T01:56:08.582Z,20.50
2018-06-11T01:58:37.450Z,20.50
2018-06-11T02:01:06.340Z,20.50
2018-06-11T02:03:35.574Z,20.50
2018-06-11T02:06:04.466Z,20.50
2018-06-11T02:08:33.330Z,20.40
2018-06-11T02:11:02.178Z,20.40
2018-06-11T02:13:31.139Z,20.40
2018-06-11T02:16:00.103Z,20.50
2018-06-11T02:18:28.958Z,20.40
2018-06-11T02:23:26.324Z,20.40
2018-06-11T02:28:24.078Z,20.30
2018-06-11T02:30:52.930Z,20.30
2018-06-11T02:33:21.878Z,20.30
2018-06-11T02:35:50.763Z,20.30
2018-06-11T02:38:19.595Z,20.30
2018-06-11T02:40:49.855Z,20.30
2018-06-11T02:43:18.816Z,20.30
2018-06-11T02:45:47.755Z,20.30
2018-06-11T02:48:16.596Z,20.30
2018-06-11T02:50:45.475Z,20.30
2018-06-11T02:53:14.385Z,20.20
2018-06-11T02:55:43.255Z,20.20
2018-06-11T02:58:12.158Z,20.20
2018-06-11T03:00:41.055Z,20.20
2018-06-11T03:03:09.979Z,20.20
2018-06-11T03:05:38.959Z,20.20
2018-06-11T03:08:07.843Z,20.20
2018-06-11T03:10:36.723Z,20.20
2018-06-11T03:13:05.785Z,20.10
2018-06-11T03:15:34.754Z,20.10
2018-06-11T03:18:03.578Z,20.10
2018-06-11T03:20:32.438Z,20.10
2018-06-11T03:23:01.300Z,20.10
2018-06-11T03:25:30.193Z,20.10
2018-06-11T03:27:59.065Z,20.10
2018-06-11T03:30:28.231Z,20.10
2018-06-11T03:32:57.166Z,20.10
2018-06-11T03:35:26.036Z,20.20
2018-06-11T03:37:54.944Z,20.10
2018-06-11T03:40:23.851Z,20.10
2018-06-11T03:42:53.183Z,20.10
2018-06-11T03:45:22.114Z,20.10
2018-06-11T03:47:51.021Z,20.10
2018-06-11T03:50:19.932Z,20.10
2018-06-11T03:52:48.919Z,20.20
2018-06-11T03:55:17.786Z,20.40
2018-06-11T03:57:46.714Z,20.50
2018-06-11T04:00:15.596Z,20.60
2018-06-11T04:02:44.542Z,20.80
2018-06-11T04:05:13.418Z,21.00
2018-06-11T04:07:42.338Z,21.10
2018-06-11T04:10:11.168Z,21.20
2018-06-11T04:12:40.039Z,21.30
2018-06-11T04:15:08.882Z,21.50
2018-06-11T04:17:37.775Z,21.50
2018-06-11T04:20:06.634Z,21.60
2018-06-11T04:22:35.582Z,21.60
2018-06-11T04:25:04.502Z,21.60
2018-06-11T04:27:33.440Z,21.60
2018-06-11T04:30:02.329Z,21.60
2018-06-11T04:32:31.194Z,21.60
2018-06-11T04:35:00.095Z,21.60
2018-06-11T04:37:28.958Z,21.60
2018-06-11T04:39:57.898Z,21.70
2018-06-11T04:42:26.754Z,21.70
2018-06-11T04:44:55.681Z,21.70
2018-06-11T04:47:24.542Z,21.80
2018-06-11T04:49:53.800Z,21.90
2018-06-11T04:52:22.766Z,22.10
2018-06-11T04:57:20.363Z,22.30
2018-06-11T04:59:49.272Z,22.30
2018-06-11T05:02:18.169Z,22.40
2018-06-11T05:04:47.125Z,22.50
2018-06-11T05:07:16.119Z,22.60
2018-06-11T05:12:13.634Z,22.70
2018-06-11T05:14:42.630Z,22.80
2018-06-11T05:17:11.688Z,22.80
2018-06-11T05:19:40.746Z,22.80
2018-06-11T05:22:10.097Z,22.80
2018-06-11T05:24:39.174Z,22.70
2018-06-11T05:27:08.856Z,22.80
2018-06-11T05:29:37.810Z,22.80
2018-06-11T05:32:06.838Z,22.90
2018-06-11T05:34:35.869Z,22.90
2018-06-11T05:37:04.755Z,22.90
2018-06-11T05:39:33.680Z,23.00
2018-06-11T05:42:02.574Z,23.00
2018-06-11T05:44:31.784Z,23.00
2018-06-11T05:47:00.711Z,23.00
2018-06-11T05:49:29.620Z,23.10
2018-06-11T05:51:58.482Z,23.00
2018-06-11T05:54:27.371Z,22.90
2018-06-11T05:56:56.202Z,23.00
2018-06-11T05:59:25.214Z,23.00
2018-06-11T06:01:54.118Z,23.00
2018-06-11T06:04:23.035Z,23.00
2018-06-11T06:06:51.948Z,23.00
2018-06-11T06:09:21.135Z,23.00
2018-06-11T06:11:50.042Z,23.00
2018-06-11T06:14:19.043Z,23.00
2018-06-11T06:16:47.884Z,22.90
2018-06-11T06:21:45.368Z,22.90
2018-06-11T06:24:14.230Z,22.90
2018-06-11T06:29:11.668Z,22.90
2018-06-11T06:31:40.526Z,22.90
2018-06-11T06:34:09.498Z,22.90
2018-06-11T06:36:38.363Z,22.90
2018-06-11T06:39:08.488Z,22.90
2018-06-11T06:41:37.434Z,22.90
2018-06-11T06:44:06.298Z,22.90
2018-06-11T06:46:35.155Z,23.00
2018-06-11T06:49:04.054Z,23.00
2018-06-11T06:51:32.886Z,23.00
2018-06-11T06:54:01.753Z,23.00
2018-06-11T06:56:30.641Z,23.00
2018-06-11T06:58:59.514Z,23.00
2018-06-11T07:03:56.975Z,22.20
2018-06-11T07:06:25.890Z,23.00
2018-06-11T07:08:54.784Z,23.10
2018-06-11T07:14:02.070Z,23.10
2018-06-11T07:18:59.538Z,23.10
2018-06-11T07:21:28.420Z,23.00
2018-06-11T07:23:57.263Z,23.10
2018-06-11T07:26:26.139Z,23.10
2018-06-11T07:28:55.023Z,23.10
2018-06-11T07:31:23.933Z,23.10
2018-06-11T07:33:52.742Z,23.10
2018-06-11T07:36:21.635Z,23.10
2018-06-11T07:38:51.074Z,23.00
2018-06-11T07:41:19.974Z,23.00
2018-06-11T07:43:48.880Z,23.00
2018-06-11T07:46:17.776Z,23.00
2018-06-11T07:48:46.882Z,23.00
2018-06-11T07:51:15.820Z,23.00
2018-06-11T07:53:44.821Z,22.90
2018-06-11T07:56:13.683Z,22.90
2018-06-11T07:58:42.588Z,23.00
2018-06-11T08:01:11.507Z,22.90
2018-06-11T08:03:40.414Z,22.90
2018-06-11T08:06:09.349Z,22.90
2018-06-11T08:08:38.266Z,23.00
2018-06-11T08:11:07.138Z,22.90
2018-06-11T08:13:36.049Z,22.90
2018-06-11T08:16:05.150Z,23.00
2018-06-11T08:18:34.058Z,23.00
2018-06-11T08:21:02.987Z,23.00
2018-06-11T08:23:31.968Z,23.00
2018-06-11T08:26:00.878Z,23.00
2018-06-11T08:28:29.767Z,23.00
2018-06-11T08:30:58.654Z,23.00
2018-06-11T08:33:27.528Z,23.00
2018-06-11T08:35:56.508Z,23.00
2018-06-11T08:38:25.388Z,23.00
2018-06-11T08:40:54.362Z,23.10
2018-06-11T08:43:23.230Z,23.10
2018-06-11T08:45:52.146Z,23.10
2018-06-11T08:48:21.084Z,23.20
2018-06-11T08:50:49.968Z,23.20
2018-06-11T08:53:19.071Z,23.20
2018-06-11T08:55:47.922Z,23.30
2018-06-11T08:58:16.818Z,23.40
2018-06-11T09:00:45.691Z,23.40
2018-06-11T09:03:14.579Z,23.40
2018-06-11T09:05:43.492Z,23.40
2018-06-11T09:08:12.332Z,23.50
2018-06-11T09:10:41.230Z,23.50
2018-06-11T09:13:10.135Z,23.60
2018-06-11T09:18:16.389Z,23.50
2018-06-11T09:20:45.155Z,23.60
2018-06-11T09:23:14.078Z,23.80
2018-06-11T09:25:43.034Z,23.70
2018-06-11T09:28:11.993Z,23.80
2018-06-11T09:30:41.094Z,24.00
2018-06-11T09:33:09.927Z,24.00
2018-06-11T09:35:39.009Z,24.10
2018-06-11T09:38:08.312Z,24.10
2018-06-11T09:40:37.150Z,24.10
2018-06-11T09:43:06.177Z,24.10
2018-06-11T09:45:35.046Z,24.10
2018-06-11T09:48:03.942Z,24.10
2018-06-11T09:50:32.775Z,24.20
2018-06-11T09:53:01.638Z,24.20
2018-06-11T09:55:30.660Z,24.30
2018-06-11T09:57:59.542Z,24.30
2018-06-11T10:00:32.631Z,24.30
2018-06-11T10:03:01.467Z,24.40
2018-06-11T10:05:30.315Z,24.40
2018-06-11T10:07:59.152Z,24.40
2018-06-11T10:10:27.982Z,24.50
2018-06-11T10:12:56.833Z,24.50
2018-06-11T10:15:25.714Z,24.50
2018-06-11T10:17:54.582Z,24.50
2018-06-11T10:20:23.494Z,24.50
2018-06-11T10:22:52.346Z,24.50
2018-06-11T10:25:21.539Z,24.60
2018-06-11T10:27:50.493Z,24.60
2018-06-11T10:30:19.334Z,24.60
2018-06-11T10:32:48.168Z,24.70
2018-06-11T10:35:17.026Z,24.80
2018-06-11T10:37:46.187Z,24.80
2018-06-11T10:42:43.578Z,24.90
2018-06-11T10:45:12.432Z,25.00
2018-06-11T10:47:41.273Z,25.00
2018-06-11T10:50:10.151Z,26.50
2018-06-11T10:52:38.998Z,25.00
2018-06-11T10:55:07.874Z,25.10
2018-06-11T11:00:05.250Z,25.10
2018-06-11T11:05:02.654Z,25.10
2018-06-11T11:07:31.550Z,25.10
2018-06-11T11:10:00.423Z,25.10
2018-06-11T11:12:29.327Z,25.20
2018-06-11T11:17:26.671Z,25.20
2018-06-11T11:19:55.509Z,25.20
2018-06-11T11:22:24.386Z,25.20
2018-06-11T11:24:53.271Z,25.30
2018-06-11T11:27:22.126Z,25.30
2018-06-11T11:29:50.994Z,25.40
2018-06-11T11:32:20.055Z,25.40
2018-06-11T11:34:48.968Z,25.40
2018-06-11T11:37:17.826Z,25.40
2018-06-11T11:39:46.675Z,25.50
2018-06-11T11:42:15.511Z,25.50
2018-06-11T11:44:44.386Z,25.50
2018-06-11T11:47:13.230Z,25.50
2018-06-11T11:49:42.182Z,25.50
2018-06-11T11:52:11.011Z,25.60
2018-06-11T11:54:39.994Z,25.70
2018-06-11T11:59:37.441Z,25.80
2018-06-11T12:02:06.279Z,25.80
2018-06-11T12:04:35.123Z,25.80
2018-06-11T12:07:03.981Z,25.70
2018-06-11T12:09:32.906Z,25.70
2018-06-11T12:14:39.099Z,25.80
2018-06-11T12:17:07.950Z,25.80
2018-06-11T12:19:37.310Z,25.80
2018-06-11T12:22:06.164Z,25.80
2018-06-11T12:24:35.030Z,25.70
2018-06-11T12:27:03.886Z,25.80
2018-06-11T12:29:32.736Z,25.80
2018-06-11T12:32:01.622Z,25.80
2018-06-11T12:34:30.447Z,25.90
2018-06-11T12:36:59.326Z,25.90
2018-06-11T12:39:28.208Z,25.90
2018-06-11T12:41:57.034Z,25.90
2018-06-11T12:44:25.907Z,26.00
2018-06-11T12:46:54.806Z,25.90
2018-06-11T12:49:23.635Z,26.00
2018-06-11T12:51:52.975Z,26.00
2018-06-11T12:56:50.330Z,26.00
2018-06-11T13:01:47.690Z,26.00
2018-06-11T13:04:16.558Z,26.00
2018-06-11T13:06:45.432Z,26.00
2018-06-11T13:09:14.303Z,26.00
2018-06-11T13:11:43.154Z,26.00
2018-06-11T13:14:11.991Z,26.00
2018-06-11T13:16:41.212Z,26.00
2018-06-11T13:19:10.060Z,26.00
2018-06-11T13:21:38.878Z,26.00
2018-06-11T13:24:07.735Z,26.00
2018-06-11T13:26:36.606Z,26.00
2018-06-11T13:29:05.979Z,26.00
2018-06-11T13:31:34.844Z,26.00
2018-06-11T13:34:03.704Z,26.10
2018-06-11T13:36:32.579Z,26.00
2018-06-11T13:39:01.418Z,26.00
2018-06-11T13:41:30.586Z,26.00
2018-06-11T13:43:59.427Z,26.10
2018-06-11T13:46:28.485Z,26.10
2018-06-11T13:48:59.089Z,26.10
2018-06-11T13:51:27.949Z,26.10
2018-06-11T13:53:56.859Z,26.10
2018-06-11T13:56:25.718Z,26.10
2018-06-11T13:58:54.541Z,26.10
2018-06-11T14:01:23.365Z,26.10
2018-06-11T14:03:52.210Z,26.10
2018-06-11T14:06:21.070Z,26.10
2018-06-11T14:08:49.952Z,26.10
2018-06-11T14:11:18.798Z,26.10
2018-06-11T14:13:47.657Z,26.10
2018-06-11T14:18:45.503Z,26.10
2018-06-11T14:21:14.358Z,26.10
2018-06-11T14:23:43.275Z,26.10
2018-06-11T14:26:12.256Z,26.10
2018-06-11T14:28:41.108Z,26.10
2018-06-11T14:31:09.978Z,26.10
2018-06-11T14:36:07.370Z,26.10
2018-06-11T14:38:36.251Z,26.10
2018-06-11T14:41:05.239Z,26.10
2018-06-11T14:43:34.427Z,26.10
2018-06-11T14:48:31.807Z,26.10
2018-06-11T14:51:00.674Z,26.10
2018-06-11T14:53:29.576Z,26.10
2018-06-11T14:55:58.426Z,26.00
2018-06-11T14:58:27.494Z,26.00
2018-06-11T15:00:56.370Z,26.10
2018-06-11T15:03:25.224Z,26.10
2018-06-11T15:05:54.233Z,26.10
2018-06-11T15:08:23.094Z,26.10
2018-06-11T15:10:52.083Z,26.10
2018-06-11T15:13:24.711Z,25.70
2018-06-11T15:15:58.000Z,25.20
2018-06-11T15:18:26.861Z,24.80
2018-06-11T15:20:55.958Z,25.10
2018-06-11T15:23:24.896Z,25.10
2018-06-11T15:28:26.541Z,25.00
2018-06-11T15:30:55.610Z,24.90
2018-06-11T15:33:27.528Z,24.90
2018-06-11T15:35:56.507Z,24.60
2018-06-11T15:38:25.487Z,24.50
2018-06-11T15:40:55.025Z,24.60
2018-06-11T15:43:24.022Z,24.80
2018-06-11T15:45:53.048Z,24.70
2018-06-11T15:48:23.118Z,24.80
2018-06-11T15:50:53.363Z,24.40
2018-06-11T15:53:23.473Z,24.30
2018-06-11T15:55:52.718Z,24.10
2018-06-11T15:58:24.521Z,24.00
2018-06-11T16:00:53.968Z,24.10
2018-06-11T16:03:27.169Z,23.80
2018-06-11T16:05:56.423Z,23.80
2018-06-11T16:08:25.314Z,23.90
2018-06-11T16:10:56.808Z,23.80
2018-06-11T16:13:34.106Z,23.80
2018-06-11T16:16:05.731Z,23.70
2018-06-11T16:21:23.400Z,23.90
2018-06-11T16:23:52.305Z,23.80
2018-06-11T16:26:23.353Z,23.90
2018-06-11T16:28:52.753Z,23.70
2018-06-11T16:31:22.301Z,23.70
2018-06-11T16:33:51.465Z,23.50
2018-06-11T16:36:21.552Z,23.30
2018-06-11T16:38:58.419Z,23.20
2018-06-11T16:41:27.554Z,23.30
2018-06-11T16:43:57.901Z,23.30
2018-06-11T16:46:27.033Z,23.40
2018-06-11T16:48:57.100Z,23.30
2018-06-11T16:51:26.408Z,23.30
2018-06-11T16:56:26.302Z,23.00
2018-06-11T16:58:55.744Z,23.20
2018-06-11T17:01:24.935Z,23.10
2018-06-11T17:03:54.156Z,23.20
2018-06-11T17:06:23.367Z,23.10
2018-06-11T17:08:53.644Z,23.10
2018-06-11T17:11:23.205Z,22.90
2018-06-11T17:16:20.950Z,23.00
2018-06-11T17:18:51.164Z,22.80
2018-06-11T17:21:20.435Z,22.70
2018-06-11T17:23:49.305Z,22.70
2018-06-11T17:26:18.218Z,22.80
2018-06-11T17:31:26.787Z,23.00
2018-06-11T17:33:57.260Z,22.80
2018-06-11T17:36:29.191Z,22.80
2018-06-11T17:38:58.303Z,22.90
2018-06-11T17:41:27.290Z,23.10
2018-06-11T17:43:56.439Z,22.80
2018-06-11T17:46:25.419Z,22.60
2018-06-11T17:48:54.792Z,22.70
2018-06-11T17:51:23.847Z,22.70
2018-06-11T17:53:53.427Z,22.90
2018-06-11T17:56:23.271Z,22.90
2018-06-11T17:58:52.426Z,22.90
2018-06-11T18:01:21.693Z,23.10
2018-06-11T18:03:50.603Z,23.00
2018-06-11T18:06:19.588Z,22.70
2018-06-11T18:08:48.496Z,23.00
2018-06-11T18:11:17.402Z,22.90
2018-06-11T18:13:46.464Z,22.80
2018-06-11T18:16:15.404Z,23.00
2018-06-11T18:18:44.328Z,23.30
2018-06-11T18:21:13.871Z,22.80
2018-06-11T18:23:43.900Z,22.80
2018-06-11T18:26:13.018Z,22.80
2018-06-11T18:31:10.469Z,22.60
2018-06-11T18:33:39.419Z,22.60
2018-06-11T18:36:08.347Z,22.60
2018-06-11T18:38:37.239Z,22.60
2018-06-11T18:41:08.715Z,22.60
2018-06-11T18:43:37.850Z,22.50
2018-06-11T18:46:06.698Z,22.70
2018-06-11T18:48:35.551Z,22.70
2018-06-11T18:51:04.472Z,22.70
2018-06-11T18:56:03.554Z,22.40
2018-06-11T18:58:33.423Z,22.40
2018-06-11T19:01:02.262Z,22.10
2018-06-11T19:03:31.147Z,22.20
2018-06-11T19:06:00.017Z,22.30
2018-06-11T19:08:28.977Z,22.20
2018-06-11T19:10:57.821Z,22.20
2018-06-11T19:13:26.983Z,22.10
2018-06-11T19:15:55.926Z,22.10
2018-06-11T19:18:24.810Z,21.90
2018-06-11T19:20:53.668Z,22.10
2018-06-11T19:23:22.514Z,22.00
2018-06-11T19:25:51.419Z,22.00
2018-06-11T19:28:20.272Z,21.70
2018-06-11T19:30:49.110Z,21.50
2018-06-11T19:33:18.073Z,21.50
2018-06-11T19:35:47.225Z,21.70
2018-06-11T19:38:16.055Z,21.60
2018-06-11T19:40:44.990Z,21.50
2018-06-11T19:43:13.743Z,21.20
2018-06-11T19:45:42.618Z,21.10
2018-06-11T19:48:11.537Z,21.00
2018-06-11T19:50:40.440Z,20.90
2018-06-11T19:53:09.594Z,20.70
2018-06-11T19:55:38.426Z,20.60
2018-06-11T19:58:07.486Z,20.50
2018-06-11T20:00:36.359Z,20.70
2018-06-11T20:05:33.756Z,20.60
2018-06-11T20:08:02.654Z,20.40
2018-06-11T20:10:31.774Z,20.60
2018-06-11T20:13:00.718Z,20.50
2018-06-11T20:15:30.004Z,20.70
2018-06-11T20:20:27.619Z,20.20
2018-06-11T20:22:56.655Z,20.00
2018-06-11T20:25:25.803Z,19.90
2018-06-11T20:28:01.479Z,19.80
2018-06-11T20:30:32.396Z,19.70
2018-06-11T20:33:01.523Z,19.70
2018-06-11T20:35:30.453Z,19.80
2018-06-11T20:38:00.410Z,19.50
2018-06-11T20:40:29.881Z,19.60
2018-06-11T20:42:59.154Z,19.60
2018-06-11T20:45:31.867Z,19.40
2018-06-11T20:48:01.871Z,19.50
2018-06-11T20:50:30.875Z,19.60
2018-06-11T20:52:59.910Z,19.20
2018-06-11T20:55:28.848Z,18.90
2018-06-11T20:57:58.609Z,18.80
2018-06-11T21:00:27.772Z,18.70
2018-06-11T21:02:56.890Z,18.60
2018-06-11T21:05:26.354Z,18.40
2018-06-11T21:07:55.437Z,18.50
2018-06-11T21:10:24.434Z,18.10
2018-06-11T21:12:53.466Z,18.00
2018-06-11T21:15:22.535Z,18.00
2018-06-11T21:17:51.518Z,18.00
2018-06-11T21:20:20.489Z,18.10
2018-06-11T21:22:49.409Z,18.00
2018-06-11T21:25:18.475Z,18.10
2018-06-11T21:27:47.631Z,18.10
2018-06-11T21:30:16.546Z,18.00
2018-06-11T21:32:45.477Z,17.90
2018-06-11T21:35:14.399Z,17.90
2018-06-11T21:37:43.404Z,17.80
2018-06-11T21:40:12.818Z,17.70
2018-06-11T21:45:23.518Z,17.80
2018-06-11T21:47:55.581Z,17.60
2018-06-11T21:50:24.706Z,17.40
2018-06-11T21:52:53.670Z,17.60
2018-06-11T21:55:22.566Z,17.50
2018-06-11T21:57:51.686Z,17.40
2018-06-11T22:00:20.867Z,18.10
2018-06-11T22:02:50.126Z,18.90
2018-06-11T22:05:19.155Z,19.40
2018-06-11T22:07:48.479Z,19.60
2018-06-11T22:10:17.437Z,19.80
2018-06-11T22:12:46.494Z,19.90
2018-06-11T22:15:15.558Z,20.10
2018-06-11T22:17:44.822Z,20.20
2018-06-11T22:20:15.739Z,20.30
2018-06-11T22:22:44.824Z,20.50
2018-06-11T22:25:14.092Z,20.50
2018-06-11T22:27:43.243Z,20.60
2018-06-11T22:30:12.579Z,20.60
2018-06-11T22:32:41.746Z,20.60
2018-06-11T22:35:10.712Z,20.60
2018-06-11T22:37:39.874Z,20.70
2018-06-11T22:40:08.888Z,20.60
2018-06-11T22:42:37.868Z,20.60
2018-06-11T22:45:06.752Z,20.70
2018-06-11T22:47:35.641Z,20.70
2018-06-11T22:50:04.638Z,20.80
2018-06-11T22:52:33.748Z,20.80
2018-06-11T22:55:02.655Z,20.70
2018-06-11T22:57:31.691Z,20.80
2018-06-11T23:00:00.676Z,20.80
2018-06-11T23:02:29.580Z,20.90
2018-06-11T23:04:58.499Z,20.90
2018-06-11T23:07:27.488Z,20.90
2018-06-11T23:09:56.388Z,20.90
2018-06-11T23:12:25.263Z,20.90
2018-06-11T23:14:54.209Z,21.00
2018-06-11T23:17:23.118Z,21.00
2018-06-11T23:19:52.007Z,20.90
2018-06-11T23:22:20.953Z,20.90
2018-06-11T23:24:49.810Z,20.90
2018-06-11T23:27:18.736Z,20.90
2018-06-11T23:29:47.698Z,20.90
2018-06-11T23:32:16.626Z,20.90
2018-06-11T23:34:45.538Z,21.00
2018-06-11T23:37:14.485Z,20.90
2018-06-11T23:39:43.342Z,20.90
2018-06-11T23:42:12.300Z,20.90
2018-06-11T23:44:41.198Z,20.90
2018-06-11T23:47:10.136Z,20.90
2018-06-11T23:49:39.042Z,20.90
2018-06-11T23:52:07.938Z,21.00
2018-06-11T23:57:05.378Z,20.90
2018-06-11T23:59:34.281Z,20.90
